Time;durP1;ratioP1;P1;durP2;ratioP2;P2;SDS_P1;SDS_P2;PMS_P1;PMS_P2;Temp;Humidity;BMP_temperature;BMP_pressure;BME280_temperature;BME280_humidity;BME280_pressure;Samples;Min_cycle;Max_cycle;Signal;HPM_P1;HPM_P2
2023/09/30 00:00:57;;;;;;;9.13;8.33;;;21.40;99.90;;;;;;5051618;28;21015;-70
2023/09/30 00:03:25;;;;;;;8.73;8.10;;;21.40;99.90;;;;;;5051172;28;20476;-70
2023/09/30 00:05:52;;;;;;;8.57;8.00;;;21.40;99.90;;;;;;5050937;28;20468;-70
2023/09/30 00:08:19;;;;;;;8.83;8.27;;;21.40;99.90;;;;;;5051472;28;20499;-70
2023/09/30 00:10:47;;;;;;;9.80;9.20;;;21.40;99.90;;;;;;5051484;28;20441;-71
2023/09/30 00:13:14;;;;;;;9.63;9.03;;;21.40;99.90;;;;;;5051189;28;20451;-71
2023/09/30 00:15:41;;;;;;;9.23;8.03;;;21.40;99.90;;;;;;5050833;28;20890;-70
2023/09/30 00:18:09;;;;;;;9.20;8.60;;;21.40;99.90;;;;;;5043087;28;20831;-70
2023/09/30 00:20:36;;;;;;;9.43;8.93;;;21.40;99.90;;;;;;5051375;28;20448;-70
2023/09/30 00:23:04;;;;;;;8.33;8.03;;;21.40;99.90;;;;;;5051203;28;20440;-70
2023/09/30 00:25:31;;;;;;;9.40;8.73;;;21.40;99.90;;;;;;5042663;28;20455;-70
2023/09/30 00:27:59;;;;;;;9.90;9.20;;;21.40;99.90;;;;;;5051071;28;20527;-70
2023/09/30 00:30:26;;;;;;;9.10;8.70;;;21.40;99.90;;;;;;5051088;28;20479;-70
2023/09/30 00:32:53;;;;;;;10.27;9.53;;;21.40;99.90;;;;;;5051084;28;20440;-70
2023/09/30 00:35:20;;;;;;;9.67;9.17;;;21.40;99.90;;;;;;5050575;28;20479;-70
2023/09/30 00:37:46;;;;;;;8.73;8.27;;;21.40;99.90;;;;;;5042983;28;20545;-70
2023/09/30 00:40:13;;;;;;;9.90;9.10;;;21.40;99.90;;;;;;5050973;28;20476;-71
2023/09/30 00:42:40;;;;;;;8.47;8.07;;;21.40;99.90;;;;;;5050836;28;20479;-71
2023/09/30 00:45:10;;;;;;;8.73;8.30;;;21.40;99.90;;;;;;5044151;28;20492;-71
2023/09/30 00:47:38;;;;;;;9.60;9.00;;;21.40;99.90;;;;;;5041364;28;20984;-71
2023/09/30 00:50:08;;;;;;;9.20;8.70;;;21.40;99.90;;;;;;5053327;28;20467;-71
2023/09/30 00:52:37;;;;;;;9.10;8.80;;;21.40;99.90;;;;;;5054944;28;20459;-71
2023/09/30 00:55:05;;;;;;;9.67;8.90;;;21.40;99.90;;;;;;5053850;28;20476;-70
2023/09/30 00:57:32;;;;;;;8.37;7.83;;;21.40;99.90;;;;;;5052320;28;20553;-70
2023/09/30 01:00:01;;;;;;;9.10;8.73;;;21.40;99.90;;;;;;5046232;28;20874;-70
2023/09/30 01:02:29;;;;;;;8.67;8.00;;;21.40;99.90;;;;;;5051731;28;20452;-70
2023/09/30 01:04:56;;;;;;;9.63;9.13;;;21.40;99.90;;;;;;5054410;28;20486;-71
2023/09/30 01:07:25;;;;;;;9.20;8.70;;;21.40;99.90;;;;;;5054296;28;20487;-70
2023/09/30 01:09:51;;;;;;;9.03;8.53;;;21.40;99.90;;;;;;5054531;28;20472;-70
2023/09/30 01:12:18;;;;;;;9.97;9.30;;;21.40;99.90;;;;;;5054304;28;20471;-70
2023/09/30 01:14:45;;;;;;;8.93;8.40;;;21.40;99.90;;;;;;5054340;28;20467;-70
2023/09/30 01:17:13;;;;;;;8.17;7.87;;;21.40;99.90;;;;;;5054446;28;20484;-70
2023/09/30 01:19:42;;;;;;;8.97;8.43;;;21.40;99.90;;;;;;5054281;28;20444;-70
2023/09/30 01:22:11;;;;;;;9.63;8.80;;;21.40;99.90;;;;;;5054100;28;20877;-72
2023/09/30 01:24:41;;;;;;;9.10;8.70;;;21.40;99.90;;;;;;5054230;28;20440;-70
2023/09/30 01:27:08;;;;;;;9.90;9.03;;;21.40;99.90;;;;;;5054060;28;21060;-70
2023/09/30 01:29:38;;;;;;;10.27;9.27;;;21.30;99.90;;;;;;5053981;28;20475;-72
2023/09/30 01:32:07;;;;;;;9.97;9.47;;;21.30;99.90;;;;;;5053853;28;20450;-70
2023/09/30 01:34:34;;;;;;;9.70;9.23;;;21.40;99.90;;;;;;5045732;28;20478;-70
2023/09/30 01:37:01;;;;;;;9.10;8.40;;;21.30;99.90;;;;;;5053975;28;20496;-70
2023/09/30 01:39:30;;;;;;;9.40;8.73;;;21.30;99.90;;;;;;5054074;28;20444;-71
2023/09/30 01:41:56;;;;;;;10.47;9.83;;;21.30;99.90;;;;;;5053684;28;20514;-70
2023/09/30 01:44:23;;;;;;;8.40;8.00;;;21.30;99.90;;;;;;5045423;28;20967;-71
2023/09/30 01:46:51;;;;;;;9.63;9.13;;;21.40;99.90;;;;;;5053502;28;20858;-70
2023/09/30 01:49:19;;;;;;;8.47;8.07;;;21.40;99.90;;;;;;5053502;28;20440;-70
2023/09/30 01:51:46;;;;;;;9.77;9.10;;;21.30;99.90;;;;;;5053645;28;20442;-71
2023/09/30 01:54:13;;;;;;;9.23;8.70;;;21.40;99.90;;;;;;5053674;28;20444;-70
2023/09/30 01:56:41;;;;;;;9.67;9.07;;;21.30;99.90;;;;;;5045115;28;20495;-69
2023/09/30 01:59:08;;;;;;;9.27;8.67;;;21.40;99.90;;;;;;5053179;28;20480;-69
2023/09/30 02:01:35;;;;;;;8.60;8.13;;;21.30;99.90;;;;;;5044207;28;20528;-70
2023/09/30 02:04:02;;;;;;;7.90;7.60;;;21.30;99.90;;;;;;5053526;28;21121;-70
2023/09/30 02:06:28;;;;;;;8.37;7.83;;;21.30;99.90;;;;;;5053165;28;20882;-70
2023/09/30 02:08:56;;;;;;;9.17;8.60;;;21.30;99.90;;;;;;5053195;28;20555;-70
2023/09/30 02:11:23;;;;;;;9.30;8.70;;;21.30;99.90;;;;;;5053445;28;20878;-70
2023/09/30 02:13:51;;;;;;;8.60;8.20;;;21.30;99.90;;;;;;5053449;28;20490;-70
2023/09/30 02:16:18;;;;;;;9.53;8.80;;;21.30;99.90;;;;;;5053088;28;20471;-70
2023/09/30 02:18:45;;;;;;;8.30;7.70;;;21.30;99.90;;;;;;5052879;28;20464;-70
2023/09/30 02:21:13;;;;;;;8.60;8.10;;;21.30;99.90;;;;;;5053284;28;20535;-70
2023/09/30 02:23:40;;;;;;;8.67;8.17;;;21.30;99.90;;;;;;5053259;28;20590;-70
2023/09/30 02:26:06;;;;;;;8.67;8.27;;;21.30;99.90;;;;;;5052833;28;20482;-69
2023/09/30 02:28:34;;;;;;;8.60;8.20;;;21.30;99.90;;;;;;5052636;28;21076;-70
2023/09/30 02:31:02;;;;;;;7.77;7.37;;;21.30;99.90;;;;;;5053097;28;20866;-69
2023/09/30 02:33:29;;;;;;;9.53;8.93;;;21.30;99.90;;;;;;5053094;28;20468;-70
2023/09/30 02:35:57;;;;;;;8.83;8.13;;;21.30;99.90;;;;;;5052701;28;20488;-70
2023/09/30 02:38:24;;;;;;;7.60;7.20;;;21.30;99.90;;;;;;5052839;28;20899;-70
2023/09/30 02:40:52;;;;;;;8.40;7.90;;;21.30;99.90;;;;;;5043481;28;20448;-70
2023/09/30 02:43:19;;;;;;;9.83;9.43;;;21.30;99.90;;;;;;5044689;28;20482;-70
2023/09/30 02:45:46;;;;;;;7.73;7.23;;;21.30;99.90;;;;;;5052535;28;20495;-70
2023/09/30 02:48:15;;;;;;;8.07;7.67;;;21.30;99.90;;;;;;5052774;28;20901;-70
2023/09/30 02:50:45;;;;;;;8.33;7.90;;;21.20;99.90;;;;;;5051316;28;20479;-70
2023/09/30 02:53:12;;;;;;;8.30;7.90;;;21.20;99.90;;;;;;5052787;28;20451;-70
2023/09/30 02:55:39;;;;;;;9.17;8.60;;;21.30;99.90;;;;;;5052229;28;20998;-69
2023/09/30 02:58:07;;;;;;;9.00;8.47;;;21.30;99.90;;;;;;5052276;28;20496;-70
2023/09/30 03:00:34;;;;;;;8.63;8.23;;;21.20;99.90;;;;;;5052029;28;20452;-70
2023/09/30 03:03:02;;;;;;;8.27;7.97;;;21.20;99.90;;;;;;5052362;28;20879;-69
2023/09/30 03:05:33;;;;;;;8.70;8.30;;;21.20;99.90;;;;;;5052071;28;20947;-70
2023/09/30 03:08:00;;;;;;;8.50;8.10;;;21.30;99.90;;;;;;5051990;28;20506;-69
2023/09/30 03:10:28;;;;;;;9.13;8.53;;;21.20;99.90;;;;;;5043755;28;20440;-70
2023/09/30 03:12:56;;;;;;;9.27;8.63;;;21.30;99.90;;;;;;5052073;28;20502;-69
2023/09/30 03:15:23;;;;;;;9.73;9.23;;;21.20;99.90;;;;;;5052146;28;20464;-70
2023/09/30 03:17:50;;;;;;;9.77;9.07;;;21.20;99.90;;;;;;5052112;28;20994;-70
2023/09/30 03:20:19;;;;;;;9.40;9.00;;;21.30;99.90;;;;;;5043742;28;20482;-69
2023/09/30 03:22:48;;;;;;;9.30;8.80;;;21.30;99.90;;;;;;5051843;28;20452;-70
2023/09/30 03:25:17;;;;;;;9.90;9.20;;;21.20;99.90;;;;;;5051783;28;21208;-70
2023/09/30 03:27:46;;;;;;;8.57;8.17;;;21.20;99.90;;;;;;5051767;28;20484;-70
2023/09/30 03:30:15;;;;;;;9.10;8.60;;;21.20;99.90;;;;;;5051971;28;20882;-70
2023/09/30 03:32:42;;;;;;;9.63;9.13;;;21.20;99.90;;;;;;5051703;28;20811;-69
2023/09/30 03:35:10;;;;;;;8.90;8.50;;;21.20;99.90;;;;;;5051689;28;20445;-70
2023/09/30 03:37:38;;;;;;;9.40;8.97;;;21.20;99.90;;;;;;5051539;28;20962;-70
2023/09/30 03:40:13;;;;;;;9.27;8.77;;;21.20;99.90;;;;;;5051621;28;20471;-70
2023/09/30 03:42:42;;;;;;;9.07;8.57;;;21.20;99.90;;;;;;5051790;28;20448;-69
2023/09/30 03:45:09;;;;;;;8.93;8.53;;;21.20;99.90;;;;;;5051514;28;20542;-70
2023/09/30 03:47:37;;;;;;;9.10;8.40;;;21.20;99.90;;;;;;5051319;28;20520;-70
2023/09/30 03:50:06;;;;;;;9.47;8.87;;;21.20;99.90;;;;;;5051441;28;20448;-70
2023/09/30 03:52:35;;;;;;;9.27;8.83;;;21.20;99.90;;;;;;5051530;28;20455;-70
2023/09/30 03:55:05;;;;;;;9.10;8.60;;;21.20;99.90;;;;;;5051465;28;20476;-70
2023/09/30 03:57:33;;;;;;;9.20;8.70;;;21.20;99.90;;;;;;5051217;28;21001;-69
2023/09/30 04:00:00;;;;;;;8.93;8.50;;;21.20;99.90;;;;;;5046661;28;20452;-70
2023/09/30 04:02:27;;;;;;;10.07;9.67;;;21.20;99.90;;;;;;5050868;28;20454;-70
2023/09/30 04:04:55;;;;;;;10.10;9.53;;;21.20;99.90;;;;;;5043051;28;20450;-71
2023/09/30 04:07:22;;;;;;;9.97;9.37;;;21.20;99.90;;;;;;5051210;28;20483;-70
2023/09/30 04:09:49;;;;;;;8.23;7.93;;;21.20;99.90;;;;;;5051105;28;20451;-70
2023/09/30 04:12:16;;;;;;;9.53;9.17;;;21.20;99.90;;;;;;5051154;28;20942;-69
2023/09/30 04:14:45;;;;;;;9.60;9.17;;;21.20;99.90;;;;;;5051092;28;20448;-70
2023/09/30 04:17:12;;;;;;;9.33;8.80;;;21.20;99.90;;;;;;5051093;28;20992;-70
2023/09/30 04:19:39;;;;;;;8.83;8.47;;;21.20;99.90;;;;;;5049332;28;20444;-70
2023/09/30 04:22:06;;;;;;;8.43;8.13;;;21.20;99.90;;;;;;5047040;28;20479;-70
2023/09/30 04:24:32;;;;;;;9.73;9.07;;;21.20;99.90;;;;;;5052766;28;20531;-70
2023/09/30 04:27:04;;;;;;;9.73;9.33;;;21.20;99.90;;;;;;5055064;28;20464;-70
2023/09/30 04:29:31;;;;;;;9.73;8.90;;;21.20;99.90;;;;;;5055080;28;20476;-69
2023/09/30 04:31:59;;;;;;;9.60;9.20;;;21.20;99.90;;;;;;5055178;28;20448;-70
2023/09/30 04:34:27;;;;;;;10.43;9.63;;;21.20;99.90;;;;;;5055383;28;20919;-70
2023/09/30 04:36:54;;;;;;;8.40;8.10;;;21.20;99.90;;;;;;5054865;28;20472;-70
2023/09/30 04:39:21;;;;;;;8.87;8.57;;;21.10;99.90;;;;;;5054263;28;20448;-70
2023/09/30 04:41:48;;;;;;;9.47;8.90;;;21.10;99.90;;;;;;5047749;28;20482;-70
2023/09/30 04:44:15;;;;;;;9.90;9.40;;;21.10;99.90;;;;;;5055080;28;20472;-70
2023/09/30 04:46:45;;;;;;;10.00;9.53;;;21.10;99.90;;;;;;5054809;28;20466;-70
2023/09/30 04:49:15;;;;;;;10.93;10.13;;;21.10;99.90;;;;;;5054727;28;20964;-70
2023/09/30 04:51:42;;;;;;;10.27;9.87;;;21.10;99.90;;;;;;5054766;28;20943;-70
2023/09/30 04:54:10;;;;;;;9.70;9.30;;;21.10;99.90;;;;;;5054831;28;20472;-70
2023/09/30 04:56:38;;;;;;;9.20;8.70;;;21.10;99.90;;;;;;5054489;28;20491;-69
2023/09/30 04:59:05;;;;;;;7.97;7.77;;;21.10;99.90;;;;;;5054483;28;20486;-69
2023/09/30 05:01:32;;;;;;;8.73;8.40;;;21.10;99.90;;;;;;5050588;28;20484;-69
2023/09/30 05:04:00;;;;;;;8.87;8.57;;;21.20;99.90;;;;;;5045906;28;20870;-71
2023/09/30 05:06:32;;;;;;;9.53;9.07;;;21.20;99.90;;;;;;5051173;28;20444;-72
2023/09/30 05:08:59;;;;;;;10.30;9.70;;;21.30;99.90;;;;;;5048818;28;20566;-71
2023/09/30 05:11:29;;;;;;;10.30;9.80;;;21.40;99.90;;;;;;5055002;28;20514;-70
2023/09/30 05:13:58;;;;;;;8.87;8.47;;;21.40;99.90;;;;;;5047424;28;20955;-71
2023/09/30 05:16:27;;;;;;;8.80;8.40;;;21.50;99.90;;;;;;5055347;28;20853;-67
2023/09/30 05:18:54;;;;;;;9.23;8.93;;;21.50;99.90;;;;;;5054821;28;20851;-68
2023/09/30 05:21:21;;;;;;;9.60;9.13;;;21.60;99.90;;;;;;5054881;28;20527;-67
2023/09/30 05:23:50;;;;;;;9.43;9.07;;;21.60;99.90;;;;;;5046608;28;20451;-70
2023/09/30 05:26:17;;;;;;;8.97;8.53;;;21.60;99.90;;;;;;5055033;28;20440;-73
2023/09/30 05:28:44;;;;;;;9.40;9.00;;;21.60;99.50;;;;;;5054634;28;20480;-73
2023/09/30 05:31:11;;;;;;;9.83;9.00;;;21.60;99.00;;;;;;5054975;28;20476;-73
2023/09/30 05:33:38;;;;;;;8.83;8.43;;;21.60;98.80;;;;;;5046560;28;20481;-73
2023/09/30 05:36:05;;;;;;;10.27;9.77;;;21.70;98.60;;;;;;5054562;28;20439;-71
2023/09/30 05:38:32;;;;;;;9.90;9.50;;;21.70;98.70;;;;;;5051964;28;20456;-69
2023/09/30 05:41:01;;;;;;;9.97;9.77;;;21.70;98.70;;;;;;5046552;28;20539;-69
2023/09/30 05:43:28;;;;;;;12.50;11.30;;;21.70;98.90;;;;;;5046355;28;20830;-68
2023/09/30 05:45:55;;;;;;;10.87;10.47;;;21.70;98.70;;;;;;5055239;28;20445;-68
2023/09/30 05:48:22;;;;;;;10.40;9.97;;;21.70;98.60;;;;;;5045925;28;20494;-68
2023/09/30 05:50:49;;;;;;;12.10;11.50;;;21.70;98.50;;;;;;5054103;28;20531;-70
2023/09/30 05:53:16;;;;;;;11.37;10.53;;;21.80;98.40;;;;;;5054401;28;20467;-69
2023/09/30 05:55:45;;;;;;;10.90;10.13;;;21.80;98.70;;;;;;5054412;28;20872;-67
2023/09/30 05:58:15;;;;;;;11.53;11.13;;;21.80;98.40;;;;;;5053862;28;21031;-69
2023/09/30 06:00:43;;;;;;;11.07;10.57;;;21.90;98.60;;;;;;5054648;28;20444;-68
2023/09/30 06:03:10;;;;;;;12.27;11.67;;;21.90;98.30;;;;;;5054381;28;20932;-67
2023/09/30 06:05:41;;;;;;;12.57;11.73;;;22.00;98.10;;;;;;5053086;28;20479;-67
2023/09/30 06:08:13;;;;;;;12.30;11.80;;;21.90;97.90;;;;;;5049245;28;20975;-67
2023/09/30 06:10:42;;;;;;;12.43;11.93;;;22.00;97.80;;;;;;5045977;28;20457;-68
2023/09/30 06:13:10;;;;;;;12.67;12.07;;;22.00;97.80;;;;;;5052760;28;20455;-68
2023/09/30 06:15:40;;;;;;;13.00;12.30;;;22.00;97.80;;;;;;5046521;28;20506;-69
2023/09/30 06:18:07;;;;;;;12.70;12.10;;;22.10;98.60;;;;;;5047615;28;20482;-68
2023/09/30 06:20:34;;;;;;;12.80;12.27;;;22.10;98.60;;;;;;5054222;28;20471;-69
2023/09/30 06:23:01;;;;;;;13.43;12.83;;;22.10;98.30;;;;;;5050242;28;20488;-68
2023/09/30 06:25:30;;;;;;;13.63;13.13;;;22.10;98.00;;;;;;5049623;28;20446;-69
2023/09/30 06:27:57;;;;;;;12.50;12.10;;;22.10;98.40;;;;;;5048618;28;20465;-70
2023/09/30 06:30:29;;;;;;;12.43;11.93;;;22.10;97.80;;;;;;5048805;28;20480;-71
2023/09/30 06:32:58;;;;;;;12.73;12.03;;;22.20;97.90;;;;;;5053632;28;20444;-71
2023/09/30 06:35:26;;;;;;;13.43;12.63;;;22.20;98.00;;;;;;5053305;28;20441;-68
2023/09/30 06:37:53;;;;;;;13.03;12.43;;;22.20;97.80;;;;;;5052401;28;20467;-69
2023/09/30 06:40:20;;;;;;;14.30;13.00;;;22.20;97.60;;;;;;5054070;28;20479;-69
2023/09/30 06:42:47;;;;;;;15.10;14.40;;;22.20;97.80;;;;;;5053486;28;20447;-68
2023/09/30 06:45:15;;;;;;;13.10;12.60;;;22.20;98.10;;;;;;5053623;28;20475;-68
2023/09/30 06:47:42;;;;;;;12.60;12.00;;;22.20;97.90;;;;;;5052516;28;20460;-69
2023/09/30 06:50:16;;;;;;;14.03;13.33;;;22.20;98.20;;;;;;5049711;28;20563;-69
2023/09/30 06:52:45;;;;;;;12.43;12.03;;;22.20;98.40;;;;;;5053713;28;20480;-69
2023/09/30 06:55:13;;;;;;;13.23;12.50;;;22.30;98.10;;;;;;5053371;28;20449;-70
2023/09/30 06:57:41;;;;;;;13.07;12.50;;;22.30;99.20;;;;;;5052874;28;20471;-70
2023/09/30 07:00:09;;;;;;;12.97;12.30;;;22.30;98.50;;;;;;5048670;28;20468;-68
2023/09/30 07:02:37;;;;;;;13.43;12.63;;;22.30;97.90;;;;;;5041654;28;20460;-68
2023/09/30 07:05:07;;;;;;;13.37;12.67;;;22.40;97.90;;;;;;5044754;28;20455;-71
2023/09/30 07:07:35;;;;;;;13.47;12.87;;;22.30;97.90;;;;;;5046883;28;20543;-69
2023/09/30 07:22:30;;;;;;;16.43;15.53;;;22.40;97.70;;;;;;5110059;27;20383;-72
2023/09/30 07:24:57;;;;;;;14.73;14.17;;;22.60;97.60;;;;;;5090336;28;20473;-72
2023/09/30 07:27:24;;;;;;;15.10;14.40;;;22.60;97.30;;;;;;5087781;28;20517;-69
2023/09/30 07:29:51;;;;;;;14.80;13.77;;;22.60;97.30;;;;;;5087841;22;20515;-68
2023/09/30 07:32:18;;;;;;;14.80;13.57;;;22.60;97.50;;;;;;5056041;28;20953;-66
2023/09/30 07:34:45;;;;;;;15.00;14.30;;;22.60;97.60;;;;;;5057315;28;20510;-67
2023/09/30 07:37:13;;;;;;;15.50;14.93;;;22.60;97.70;;;;;;5059691;28;20471;-65
2023/09/30 07:39:42;;;;;;;13.93;13.43;;;22.60;97.50;;;;;;5046485;28;20491;-67
2023/09/30 07:42:10;;;;;;;14.10;13.40;;;22.60;97.50;;;;;;5039850;28;20476;-67
2023/09/30 07:44:37;;;;;;;14.50;13.80;;;22.60;97.60;;;;;;5037847;28;20486;-69
2023/09/30 07:47:06;;;;;;;14.30;13.60;;;22.60;98.00;;;;;;5043076;28;20536;-71
2023/09/30 07:49:33;;;;;;;13.80;13.07;;;22.60;98.00;;;;;;5040226;28;20980;-69
2023/09/30 07:52:00;;;;;;;13.60;13.00;;;22.60;97.70;;;;;;5037084;28;20535;-69
2023/09/30 07:54:26;;;;;;;13.77;12.97;;;22.60;97.80;;;;;;5036230;28;20469;-67
2023/09/30 07:56:55;;;;;;;13.77;12.80;;;22.60;97.90;;;;;;5038609;28;20489;-67
2023/09/30 07:59:22;;;;;;;14.03;13.30;;;22.60;98.50;;;;;;5046728;28;20547;-68
2023/09/30 08:01:49;;;;;;;15.20;14.20;;;22.60;98.20;;;;;;5043300;28;20455;-71
2023/09/30 08:04:17;;;;;;;13.90;13.40;;;22.60;98.20;;;;;;5043985;28;20458;-71
2023/09/30 08:06:44;;;;;;;15.23;14.40;;;22.60;98.20;;;;;;5043629;28;20456;-71
2023/09/30 08:09:13;;;;;;;15.53;14.53;;;22.50;98.20;;;;;;5039376;28;20490;-73
2023/09/30 08:11:40;;;;;;;16.37;15.57;;;22.60;98.40;;;;;;5036583;28;20970;-71
2023/09/30 08:14:09;;;;;;;15.03;14.43;;;22.60;98.50;;;;;;5047088;28;20922;-72
2023/09/30 08:16:39;;;;;;;13.87;13.00;;;22.60;98.60;;;;;;5039484;28;20524;-71
2023/09/30 08:19:07;;;;;;;14.10;13.40;;;22.60;98.80;;;;;;5033210;28;20476;-73
2023/09/30 08:21:35;;;;;;;15.43;14.50;;;22.60;98.60;;;;;;5041340;28;20480;-71
2023/09/30 08:24:08;;;;;;;13.83;13.23;;;22.60;98.70;;;;;;5027657;28;20486;-71
2023/09/30 08:26:37;;;;;;;14.23;13.50;;;22.60;98.80;;;;;;5024107;28;20445;-73
2023/09/30 08:29:06;;;;;;;14.30;13.50;;;22.60;98.90;;;;;;5017525;28;20908;-72
2023/09/30 08:34:19;;;;;;;13.40;12.70;;;22.70;99.00;;;;;;5020559;28;20502;-71
2023/09/30 08:36:49;;;;;;;14.10;13.60;;;22.70;99.00;;;;;;5027156;28;20453;-66
2023/09/30 08:39:23;;;;;;;14.90;14.13;;;22.70;98.90;;;;;;5025717;28;20496;-72
2023/09/30 08:41:54;;;;;;;13.10;12.50;;;22.70;99.20;;;;;;5023512;28;20451;-71
2023/09/30 08:44:22;;;;;;;14.50;13.70;;;22.70;99.10;;;;;;5020246;28;20547;-70
2023/09/30 08:46:53;;;;;;;15.37;14.67;;;22.70;99.00;;;;;;5027458;28;21015;-72
2023/09/30 08:49:21;;;;;;;15.00;13.87;;;22.70;99.00;;;;;;5017204;28;20552;-72
2023/09/30 08:51:50;;;;;;;13.47;12.87;;;22.70;99.10;;;;;;5021389;28;20517;-72
2023/09/30 08:54:17;;;;;;;14.17;13.67;;;22.70;99.20;;;;;;5030250;28;20455;-73
2023/09/30 08:56:49;;;;;;;15.20;14.50;;;22.70;99.20;;;;;;5026345;28;20508;-72
2023/09/30 08:59:16;;;;;;;13.97;13.37;;;22.70;99.20;;;;;;5031564;28;20900;-73
2023/09/30 09:01:44;;;;;;;15.23;14.33;;;22.70;99.00;;;;;;5025049;28;20441;-73
2023/09/30 09:04:14;;;;;;;15.10;14.30;;;22.70;99.20;;;;;;5022504;28;20456;-72
2023/09/30 09:06:41;;;;;;;14.47;13.80;;;22.70;99.20;;;;;;5030336;28;20476;-72
2023/09/30 09:09:15;;;;;;;13.83;13.13;;;22.70;99.40;;;;;;5019852;28;20504;-73
2023/09/30 09:11:43;;;;;;;14.60;14.00;;;22.70;99.50;;;;;;5019897;28;20477;-74
2023/09/30 09:14:10;;;;;;;15.53;14.83;;;22.70;99.40;;;;;;5026730;28;20934;-73
2023/09/30 09:16:37;;;;;;;15.37;14.40;;;22.70;99.40;;;;;;5022332;28;20451;-71
2023/09/30 09:19:22;;;;;;;14.87;14.23;;;22.70;99.50;;;;;;5023642;28;20839;-70
2023/09/30 09:21:58;;;;;;;14.23;13.73;;;22.70;99.60;;;;;;5021625;28;20441;-68
2023/09/30 09:24:29;;;;;;;14.03;13.47;;;22.70;99.50;;;;;;5023738;28;20984;-72
2023/09/30 09:27:06;;;;;;;14.87;14.07;;;22.70;99.50;;;;;;5024896;28;20481;-69
2023/09/30 09:29:34;;;;;;;14.10;13.50;;;22.70;99.60;;;;;;5025175;28;20479;-70
2023/09/30 09:32:11;;;;;;;12.93;12.33;;;22.70;99.70;;;;;;5021631;28;20478;-67
2023/09/30 09:34:40;;;;;;;14.10;13.50;;;22.70;99.90;;;;;;5017087;28;20450;-67
2023/09/30 09:37:18;;;;;;;15.77;14.70;;;22.80;99.90;;;;;;5017035;28;20798;-72
2023/09/30 09:40:03;;;;;;;16.20;15.13;;;22.80;99.90;;;;;;5028212;28;20468;-70
2023/09/30 09:42:32;;;;;;;14.30;13.77;;;22.80;99.70;;;;;;5015489;28;20457;-69
2023/09/30 09:45:05;;;;;;;16.93;16.13;;;22.80;99.70;;;;;;4994961;28;21049;-68
2023/09/30 09:47:33;;;;;;;15.20;14.20;;;22.70;99.30;;;;;;5024640;28;20539;-68
2023/09/30 09:50:05;;;;;;;16.90;15.63;;;22.70;99.30;;;;;;5022070;28;20500;-68
2023/09/30 09:52:35;;;;;;;16.13;14.53;;;22.80;99.70;;;;;;5021587;28;20500;-68
2023/09/30 09:55:03;;;;;;;18.73;16.73;;;22.90;99.90;;;;;;5029307;28;20474;-68
2023/09/30 09:57:32;;;;;;;26.00;17.50;;;22.80;99.90;;;;;;5022959;28;20577;-68
2023/09/30 10:00:05;;;;;;;19.30;17.50;;;22.90;99.90;;;;;;5028833;28;20497;-68
2023/09/30 10:02:36;;;;;;;31.13;19.63;;;22.90;99.90;;;;;;5028574;28;20481;-68
2023/09/30 10:05:11;;;;;;;26.00;16.80;;;22.90;99.90;;;;;;5021332;28;20808;-69
2023/09/30 10:07:44;;;;;;;24.90;18.87;;;22.90;99.90;;;;;;5022652;28;20454;-69
2023/09/30 10:10:16;;;;;;;23.67;17.23;;;23.00;99.90;;;;;;5016873;28;20503;-70
2023/09/30 10:12:44;;;;;;;26.33;17.80;;;23.00;99.90;;;;;;5022944;28;20488;-68
2023/09/30 10:15:40;;;;;;;25.43;19.23;;;23.00;99.90;;;;;;5023638;28;20450;-66
2023/09/30 10:18:09;;;;;;;30.27;18.47;;;23.00;99.90;;;;;;5002894;28;20464;-65
2023/09/30 10:20:47;;;;;;;25.93;20.10;;;23.00;99.90;;;;;;5020515;28;20801;-65
2023/09/30 10:23:22;;;;;;;20.10;17.77;;;23.00;99.90;;;;;;5013210;28;20447;-65
2023/09/30 10:25:51;;;;;;;20.37;17.20;;;23.00;99.90;;;;;;5021067;28;20449;-65
2023/09/30 10:28:38;;;;;;;17.77;15.90;;;23.00;99.90;;;;;;5023705;28;20548;-65
2023/09/30 10:31:15;;;;;;;17.33;15.70;;;23.10;99.90;;;;;;5019886;28;20478;-65
2023/09/30 10:34:19;;;;;;;19.50;15.70;;;23.10;99.90;;;;;;5020192;28;20766;-64
2023/09/30 10:36:53;;;;;;;17.37;16.03;;;23.10;99.90;;;;;;4994889;28;20814;-67
2023/09/30 10:39:53;;;;;;;23.60;16.43;;;23.10;99.90;;;;;;5023628;28;20483;-65
2023/09/30 10:42:49;;;;;;;15.43;14.13;;;23.10;99.90;;;;;;5013946;28;20489;-67
2023/09/30 10:45:46;;;;;;;18.90;14.00;;;23.10;99.90;;;;;;5012850;28;20434;-67
2023/09/30 10:48:41;;;;;;;14.43;13.30;;;23.10;99.90;;;;;;5020786;28;21064;-67
2023/09/30 10:51:20;;;;;;;16.17;14.77;;;23.10;99.90;;;;;;5011655;28;21058;-67
2023/09/30 10:53:56;;;;;;;17.33;15.77;;;23.10;99.90;;;;;;5020559;28;20477;-69
2023/09/30 10:56:26;;;;;;;15.47;14.20;;;23.10;99.90;;;;;;5023236;28;20445;-68
2023/09/30 10:58:55;;;;;;;17.10;15.57;;;23.10;99.90;;;;;;5022852;28;20476;-69
2023/09/30 11:01:26;;;;;;;18.53;16.10;;;23.20;99.90;;;;;;5019572;28;20434;-67
2023/09/30 11:04:03;;;;;;;16.87;15.17;;;23.20;99.90;;;;;;5021206;28;20453;-70
2023/09/30 11:06:32;;;;;;;15.87;15.00;;;23.20;99.90;;;;;;5005397;28;20520;-68
2023/09/30 11:09:04;;;;;;;16.10;15.00;;;23.20;99.90;;;;;;5019405;28;20566;-69
2023/09/30 11:11:35;;;;;;;16.13;14.13;;;23.20;99.90;;;;;;5019023;28;20474;-68
2023/09/30 11:14:17;;;;;;;16.30;15.30;;;23.20;99.90;;;;;;5022326;28;20474;-68
2023/09/30 11:16:46;;;;;;;15.33;14.43;;;23.20;99.90;;;;;;5022796;28;20464;-67
2023/09/30 11:19:14;;;;;;;16.60;15.40;;;23.20;99.90;;;;;;5020256;28;20566;-68
2023/09/30 11:21:43;;;;;;;16.23;15.07;;;23.20;99.90;;;;;;5023752;28;20445;-67
2023/09/30 11:24:20;;;;;;;14.43;13.73;;;23.20;99.90;;;;;;5011626;28;20453;-69
2023/09/30 11:26:48;;;;;;;15.23;14.20;;;23.20;99.90;;;;;;5019461;28;21005;-66
2023/09/30 11:29:17;;;;;;;16.50;15.57;;;23.20;99.90;;;;;;5023842;28;21087;-65
2023/09/30 11:31:50;;;;;;;14.90;14.20;;;23.10;99.90;;;;;;5022545;28;20591;-68
2023/09/30 11:34:20;;;;;;;15.87;14.87;;;23.00;99.90;;;;;;5012600;28;20440;-68
2023/09/30 11:36:51;;;;;;;14.80;13.87;;;22.90;99.90;;;;;;5023609;28;20503;-67
2023/09/30 11:39:28;;;;;;;13.93;13.23;;;22.90;99.90;;;;;;5022687;28;20522;-67
2023/09/30 11:41:56;;;;;;;16.57;15.17;;;22.80;99.90;;;;;;5020927;28;20437;-67
2023/09/30 11:49:59;;;;;;;14.47;13.73;;;22.80;99.90;;;;;;5019035;28;20465;-67
2023/09/30 11:52:30;;;;;;;15.40;14.30;;;22.80;99.90;;;;;;5022032;28;20504;-67
2023/09/30 11:55:08;;;;;;;15.67;14.73;;;22.80;99.90;;;;;;5020737;28;20476;-67
2023/09/30 11:57:37;;;;;;;15.70;14.90;;;22.80;99.90;;;;;;5020691;28;20438;-67
2023/09/30 12:00:13;;;;;;;14.90;14.10;;;22.80;99.90;;;;;;5025338;28;20520;-67
2023/09/30 12:02:44;;;;;;;14.20;13.60;;;22.80;99.90;;;;;;5025826;28;20459;-68
2023/09/30 12:05:13;;;;;;;14.13;13.37;;;22.80;99.90;;;;;;5014394;28;20959;-67
2023/09/30 12:07:45;;;;;;;13.60;12.90;;;22.80;99.90;;;;;;5022318;28;20449;-67
2023/09/30 12:10:19;;;;;;;15.03;14.40;;;22.70;99.90;;;;;;5014741;28;20474;-67
2023/09/30 12:12:54;;;;;;;13.47;12.60;;;22.70;99.90;;;;;;5022361;28;20477;-67
2023/09/30 12:15:22;;;;;;;13.43;12.93;;;22.80;99.90;;;;;;5025682;28;20519;-67
2023/09/30 12:17:50;;;;;;;16.87;15.30;;;22.70;99.90;;;;;;5024681;28;20456;-68
2023/09/30 12:20:19;;;;;;;15.40;14.60;;;22.80;99.90;;;;;;5022327;28;20470;-68
2023/09/30 12:22:48;;;;;;;14.90;13.70;;;22.70;98.90;;;;;;5022052;28;20938;-68
2023/09/30 12:25:21;;;;;;;15.10;14.40;;;22.70;99.90;;;;;;4997002;28;20442;-69
2023/09/30 12:27:55;;;;;;;14.20;13.20;;;22.70;99.90;;;;;;5004771;28;20450;-68
2023/09/30 12:30:22;;;;;;;15.20;14.13;;;22.70;99.90;;;;;;5025562;28;20452;-68
2023/09/30 12:32:51;;;;;;;13.33;12.63;;;22.70;99.80;;;;;;5024886;28;20504;-69
2023/09/30 12:35:22;;;;;;;12.37;11.77;;;22.70;98.10;;;;;;5021724;28;20470;-68
2023/09/30 12:37:56;;;;;;;12.53;11.93;;;22.60;96.90;;;;;;5021764;28;20439;-67
2023/09/30 12:40:35;;;;;;;12.10;11.60;;;22.70;96.70;;;;;;5025532;28;20456;-68
2023/09/30 12:43:07;;;;;;;14.17;13.40;;;22.70;97.40;;;;;;5023020;28;20441;-68
2023/09/30 12:45:36;;;;;;;12.37;11.77;;;22.70;96.30;;;;;;5022120;28;20438;-68
2023/09/30 12:48:07;;;;;;;13.47;12.43;;;22.60;96.20;;;;;;5023950;28;20481;-69
2023/09/30 12:50:35;;;;;;;11.80;11.30;;;22.70;97.10;;;;;;5023724;28;20961;-69
2023/09/30 12:53:03;;;;;;;11.57;11.13;;;22.70;96.90;;;;;;5023334;28;21002;-68
2023/09/30 12:55:36;;;;;;;12.03;11.50;;;22.60;98.50;;;;;;5025347;28;20437;-68
2023/09/30 12:58:06;;;;;;;13.53;12.83;;;22.60;98.70;;;;;;5022577;28;20445;-68
2023/09/30 13:00:35;;;;;;;31.37;16.70;;;22.60;98.70;;;;;;5007221;28;20454;-68
2023/09/30 13:03:02;;;;;;;26.60;18.30;;;22.60;99.50;;;;;;5026752;28;20985;-68
2023/09/30 13:05:30;;;;;;;52.90;25.13;;;22.70;98.60;;;;;;5021824;28;20881;-67
2023/09/30 13:07:57;;;;;;;31.63;19.60;;;22.60;99.30;;;;;;5022627;28;20453;-67